SKW5479 KSFO-KMRY
Flight info
| Callsign | SKW5479 |
|---|---|
| Flight time | 0h 28m |
| Altitude | 11000 |
| Route | GAPP7 SFO EUGEN |
| Aircraft | CRJ7/M-SDFGIRWY/S |
Departure
| Time | 2026-04-30 20:18 |
|---|---|
| Airport | San Francisco International Airport (KSFO) |
Arrival
| Time | 2026-04-30 20:46 |
|---|---|
| Airport | Monterey Regional Airport (KMRY) |
| Time | Latitude | Longitude | Altitude | Speed | Heading |
|---|---|---|---|---|---|
| 2026-04-30 19:56 | 37.62052 | -122.38646 | 15 ft | 0 kts | 296° |
| 2026-04-30 20:07 | 37.62052 | -122.38645 | 33 ft | 1 kts | 296° |
| 2026-04-30 20:08 | 37.62050 | -122.38641 | 33 ft | 3 kts | 298° |
| 2026-04-30 20:08 | 37.62041 | -122.38619 | 15 ft | 3 kts | 302° |
| 2026-04-30 20:08 | 37.62029 | -122.38600 | 16 ft | 3 kts | 332° |
| 2026-04-30 20:08 | 37.62018 | -122.38596 | 15 ft | 1 kts | 26° |
| 2026-04-30 20:09 | 37.62017 | -122.38597 | 15 ft | 2 kts | 28° |
| 2026-04-30 20:12 | 37.62027 | -122.38591 | 17 ft | 3 kts | 26° |
| 2026-04-30 20:13 | 37.62048 | -122.38578 | 16 ft | 5 kts | 27° |
| 2026-04-30 20:13 | 37.62086 | -122.38539 | 18 ft | 9 kts | 63° |
| 2026-04-30 20:13 | 37.62068 | -122.38444 | 18 ft | 14 kts | 118° |
| 2026-04-30 20:13 | 37.62013 | -122.38316 | 22 ft | 19 kts | 118° |
| 2026-04-30 20:14 | 37.61965 | -122.38200 | 21 ft | 15 kts | 117° |
| 2026-04-30 20:14 | 37.61911 | -122.38070 | 20 ft | 19 kts | 118° |
| 2026-04-30 20:14 | 37.61840 | -122.37899 | 18 ft | 23 kts | 113° |
| 2026-04-30 20:14 | 37.61772 | -122.37679 | 17 ft | 29 kts | 111° |
| 2026-04-30 20:15 | 37.61683 | -122.37425 | 19 ft | 34 kts | 118° |
| 2026-04-30 20:15 | 37.61570 | -122.37160 | 22 ft | 36 kts | 118° |
| 2026-04-30 20:15 | 37.61473 | -122.36942 | 20 ft | 26 kts | 129° |
| 2026-04-30 20:15 | 37.61358 | -122.36759 | 18 ft | 27 kts | 121° |
| 2026-04-30 20:16 | 37.61268 | -122.36548 | 14 ft | 28 kts | 119° |
| 2026-04-30 20:16 | 37.61179 | -122.36337 | 16 ft | 26 kts | 117° |
| 2026-04-30 20:16 | 37.61095 | -122.36135 | 17 ft | 26 kts | 117° |
| 2026-04-30 20:16 | 37.61052 | -122.35993 | 18 ft | 15 kts | 92° |
| 2026-04-30 20:17 | 37.61109 | -122.35895 | 18 ft | 15 kts | 21° |
| 2026-04-30 20:17 | 37.61201 | -122.35919 | 18 ft | 15 kts | 307° |
| 2026-04-30 20:17 | 37.61293 | -122.36132 | 13 ft | 52 kts | 297° |
| 2026-04-30 20:17 | 37.61575 | -122.36802 | 20 ft | 118 kts | 298° |
| 2026-04-30 20:18 | 37.62039 | -122.37903 | 22 ft | 162 kts | 297° |
| 2026-04-30 20:18 | 37.62591 | -122.39180 | 478 ft | 156 kts | 300° |
| 2026-04-30 20:18 | 37.63125 | -122.40341 | 1008 ft | 160 kts | 299° |
| 2026-04-30 20:18 | 37.63710 | -122.41584 | 1426 ft | 165 kts | 301° |
| 2026-04-30 20:19 | 37.64278 | -122.42815 | 2043 ft | 160 kts | 296° |
| 2026-04-30 20:19 | 37.64558 | -122.44202 | 2393 ft | 173 kts | 274° |
| 2026-04-30 20:19 | 37.64395 | -122.45847 | 2577 ft | 202 kts | 248° |
| 2026-04-30 20:19 | 37.63559 | -122.47155 | 3485 ft | 183 kts | 213° |
| 2026-04-30 20:20 | 37.62374 | -122.47647 | 4128 ft | 185 kts | 178° |
| 2026-04-30 20:20 | 37.61043 | -122.47276 | 4333 ft | 213 kts | 162° |
| 2026-04-30 20:20 | 37.59504 | -122.46769 | 4737 ft | 238 kts | 167° |
| 2026-04-30 20:20 | 37.57845 | -122.46454 | 5473 ft | 250 kts | 174° |
| 2026-04-30 20:21 | 37.56066 | -122.46340 | 6211 ft | 261 kts | 178° |
| 2026-04-30 20:21 | 37.54336 | -122.46298 | 6924 ft | 268 kts | 178° |
| 2026-04-30 20:21 | 37.52569 | -122.46246 | 7604 ft | 273 kts | 178° |
| 2026-04-30 20:21 | 37.50652 | -122.46174 | 8173 ft | 279 kts | 178° |
| 2026-04-30 20:22 | 37.48694 | -122.46095 | 8768 ft | 283 kts | 178° |
| 2026-04-30 20:22 | 37.46701 | -122.46006 | 9359 ft | 288 kts | 178° |
| 2026-04-30 20:22 | 37.44684 | -122.45920 | 9959 ft | 293 kts | 178° |
| 2026-04-30 20:22 | 37.42631 | -122.45829 | 10509 ft | 298 kts | 178° |
| 2026-04-30 20:23 | 37.40514 | -122.45737 | 10815 ft | 312 kts | 178° |
| 2026-04-30 20:23 | 37.38272 | -122.45639 | 10961 ft | 332 kts | 178° |
| 2026-04-30 20:23 | 37.35888 | -122.45535 | 11042 ft | 354 kts | 178° |
| 2026-04-30 20:23 | 37.33379 | -122.45094 | 11072 ft | 375 kts | 162° |
| 2026-04-30 20:24 | 37.31194 | -122.44100 | 11094 ft | 390 kts | 159° |
| 2026-04-30 20:24 | 37.28792 | -122.42388 | 11094 ft | 403 kts | 137° |
| 2026-04-30 20:24 | 37.27075 | -122.39697 | 11099 ft | 402 kts | 121° |
| 2026-04-30 20:24 | 37.25582 | -122.36728 | 11078 ft | 401 kts | 123° |
| 2026-04-30 20:25 | 37.22031 | -122.31362 | 11051 ft | 399 kts | 133° |
| 2026-04-30 20:25 | 37.20066 | -122.28899 | 11047 ft | 398 kts | 134° |
| 2026-04-30 20:26 | 37.16161 | -122.24006 | 11033 ft | 395 kts | 134° |
| 2026-04-30 20:26 | 37.12311 | -122.19111 | 11001 ft | 393 kts | 133° |
| 2026-04-30 20:26 | 37.10644 | -122.16957 | 10996 ft | 392 kts | 133° |
| 2026-04-30 20:27 | 37.06870 | -122.12031 | 11015 ft | 391 kts | 133° |
| 2026-04-30 20:27 | 37.03127 | -122.07158 | 11013 ft | 390 kts | 133° |
| 2026-04-30 20:28 | 36.99347 | -122.02297 | 11002 ft | 388 kts | 133° |
| 2026-04-30 20:28 | 36.95574 | -121.97455 | 11017 ft | 388 kts | 133° |
| 2026-04-30 20:29 | 36.91840 | -121.92672 | 11017 ft | 387 kts | 133° |
| 2026-04-30 20:30 | 36.86422 | -121.85739 | 11008 ft | 394 kts | 133° |
| 2026-04-30 20:30 | 36.80590 | -121.78301 | 10498 ft | 395 kts | 134° |
| 2026-04-30 20:31 | 36.75321 | -121.71596 | 8883 ft | 331 kts | 133° |
| 2026-04-30 20:32 | 36.70981 | -121.66081 | 7519 ft | 293 kts | 134° |
| 2026-04-30 20:32 | 36.68225 | -121.62574 | 6687 ft | 272 kts | 134° |
| 2026-04-30 20:33 | 36.66920 | -121.60915 | 6440 ft | 263 kts | 134° |
| 2026-04-30 20:33 | 36.63878 | -121.58549 | 6097 ft | 252 kts | 156° |
| 2026-04-30 20:33 | 36.62296 | -121.57719 | 6068 ft | 242 kts | 156° |
| 2026-04-30 20:34 | 36.59140 | -121.56091 | 5730 ft | 258 kts | 157° |
| 2026-04-30 20:34 | 36.55716 | -121.54321 | 5802 ft | 277 kts | 157° |
| 2026-04-30 20:35 | 36.54163 | -121.53531 | 5977 ft | 278 kts | 157° |
| 2026-04-30 20:35 | 36.52361 | -121.52612 | 6063 ft | 282 kts | 157° |
| 2026-04-30 20:35 | 36.48772 | -121.50809 | 6106 ft | 274 kts | 157° |
| 2026-04-30 20:36 | 36.47017 | -121.49938 | 6106 ft | 267 kts | 156° |
| 2026-04-30 20:36 | 36.45567 | -121.48635 | 6085 ft | 253 kts | 123° |
| 2026-04-30 20:36 | 36.44529 | -121.44728 | 6073 ft | 230 kts | 102° |
| 2026-04-30 20:37 | 36.44216 | -121.42812 | 6064 ft | 223 kts | 100° |
| 2026-04-30 20:37 | 36.43951 | -121.40904 | 6053 ft | 226 kts | 98° |
| 2026-04-30 20:37 | 36.43724 | -121.38950 | 6073 ft | 230 kts | 97° |
| 2026-04-30 20:37 | 36.43711 | -121.36972 | 6055 ft | 232 kts | 72° |
| 2026-04-30 20:38 | 36.44637 | -121.35337 | 5895 ft | 239 kts | 32° |
| 2026-04-30 20:38 | 36.46190 | -121.34803 | 5873 ft | 240 kts | 354° |
| 2026-04-30 20:38 | 36.47706 | -121.35598 | 6064 ft | 241 kts | 316° |
| 2026-04-30 20:39 | 36.48371 | -121.39512 | 6219 ft | 253 kts | 253° |
| 2026-04-30 20:39 | 36.48009 | -121.41678 | 6220 ft | 262 kts | 271° |
| 2026-04-30 20:39 | 36.48171 | -121.44021 | 5981 ft | 281 kts | 271° |
| 2026-04-30 20:40 | 36.47851 | -121.49134 | 5650 ft | 295 kts | 263° |
| 2026-04-30 20:40 | 36.47602 | -121.51555 | 5633 ft | 276 kts | 263° |
| 2026-04-30 20:40 | 36.47511 | -121.53844 | 5625 ft | 257 kts | 282° |
| 2026-04-30 20:41 | 36.48901 | -121.57717 | 5146 ft | 244 kts | 299° |
| 2026-04-30 20:41 | 36.49739 | -121.59549 | 4783 ft | 244 kts | 300° |
| 2026-04-30 20:41 | 36.50608 | -121.61383 | 4415 ft | 249 kts | 301° |
| 2026-04-30 20:41 | 36.51507 | -121.63253 | 4079 ft | 253 kts | 301° |
| 2026-04-30 20:42 | 36.52390 | -121.65136 | 3781 ft | 251 kts | 296° |
| 2026-04-30 20:42 | 36.53017 | -121.67129 | 3427 ft | 244 kts | 289° |
| 2026-04-30 20:42 | 36.54075 | -121.70961 | 2633 ft | 219 kts | 290° |
| 2026-04-30 20:43 | 36.54539 | -121.72652 | 2228 ft | 195 kts | 290° |
| 2026-04-30 20:43 | 36.55029 | -121.74132 | 1934 ft | 177 kts | 298° |
| 2026-04-30 20:43 | 36.55577 | -121.75410 | 1761 ft | 161 kts | 299° |
| 2026-04-30 20:44 | 36.56429 | -121.77655 | 1296 ft | 130 kts | 296° |
| 2026-04-30 20:44 | 36.56795 | -121.78761 | 1047 ft | 141 kts | 294° |
| 2026-04-30 20:44 | 36.57557 | -121.81037 | 719 ft | 138 kts | 291° |
| 2026-04-30 20:45 | 36.58285 | -121.83191 | 307 ft | 126 kts | 292° |
| 2026-04-30 20:45 | 36.58590 | -121.84108 | 232 ft | 101 kts | 293° |
| 2026-04-30 20:45 | 36.58822 | -121.84800 | 205 ft | 74 kts | 293° |
| 2026-04-30 20:46 | 36.58907 | -121.85285 | 183 ft | 0 kts | 187° |
| 2026-04-30 20:46 | 36.58896 | -121.85282 | 183 ft | 4 kts | 150° |
| 2026-04-30 20:47 | 36.58856 | -121.85138 | 192 ft | 7 kts | 111° |
| 2026-04-30 20:47 | 36.58820 | -121.85061 | 194 ft | 11 kts | 134° |
| 2026-04-30 20:48 | 36.58791 | -121.85088 | 200 ft | 0 kts | 242° |